sensor_id;sensor_type;location;lat;lon;timestamp;P1;durP1;ratioP1;P2;durP2;ratioP2
59008;SDS011;44794;42.652;23.318;2023-07-02T00:01:55;16.98;;;9.55;;
59008;SDS011;44794;42.652;23.318;2023-07-02T00:04:21;17.23;;;10.18;;
59008;SDS011;44794;42.652;23.318;2023-07-02T00:06:46;14.68;;;9.60;;
59008;SDS011;44794;42.652;23.318;2023-07-02T00:09:12;15.10;;;9.40;;
59008;SDS011;44794;42.652;23.318;2023-07-02T00:11:38;17.95;;;9.48;;
59008;SDS011;44794;42.652;23.318;2023-07-02T00:14:05;16.40;;;10.45;;
59008;SDS011;44794;42.652;23.318;2023-07-02T00:16:31;16.63;;;9.63;;
59008;SDS011;44794;42.652;23.318;2023-07-02T00:18:57;21.90;;;10.20;;
59008;SDS011;44794;42.652;23.318;2023-07-02T00:21:22;14.50;;;9.35;;
59008;SDS011;44794;42.652;23.318;2023-07-02T00:26:18;17.75;;;10.00;;
59008;SDS011;44794;42.652;23.318;2023-07-02T00:28:44;17.65;;;9.50;;
59008;SDS011;44794;42.652;23.318;2023-07-02T00:31:09;18.20;;;10.02;;
59008;SDS011;44794;42.652;23.318;2023-07-02T00:33:35;16.95;;;9.70;;
59008;SDS011;44794;42.652;23.318;2023-07-02T00:36:00;18.00;;;10.07;;
59008;SDS011;44794;42.652;23.318;2023-07-02T00:38:26;19.13;;;9.73;;
59008;SDS011;44794;42.652;23.318;2023-07-02T00:40:51;16.02;;;9.38;;
59008;SDS011;44794;42.652;23.318;2023-07-02T00:43:17;14.60;;;9.02;;
59008;SDS011;44794;42.652;23.318;2023-07-02T00:45:42;16.80;;;9.88;;
59008;SDS011;44794;42.652;23.318;2023-07-02T00:48:09;14.82;;;9.23;;
59008;SDS011;44794;42.652;23.318;2023-07-02T00:50:35;16.27;;;8.85;;
59008;SDS011;44794;42.652;23.318;2023-07-02T00:53:00;20.38;;;9.55;;
59008;SDS011;44794;42.652;23.318;2023-07-02T00:55:26;14.52;;;9.07;;
59008;SDS011;44794;42.652;23.318;2023-07-02T00:57:51;20.17;;;9.65;;
59008;SDS011;44794;42.652;23.318;2023-07-02T01:00:17;16.17;;;9.15;;
59008;SDS011;44794;42.652;23.318;2023-07-02T01:02:42;16.85;;;9.50;;
59008;SDS011;44794;42.652;23.318;2023-07-02T01:05:17;19.33;;;10.07;;
59008;SDS011;44794;42.652;23.318;2023-07-02T01:07:46;18.60;;;9.70;;
59008;SDS011;44794;42.652;23.318;2023-07-02T01:10:12;12.98;;;9.30;;
59008;SDS011;44794;42.652;23.318;2023-07-02T01:12:37;15.70;;;9.15;;
59008;SDS011;44794;42.652;23.318;2023-07-02T01:15:04;15.43;;;8.73;;
59008;SDS011;44794;42.652;23.318;2023-07-02T01:17:31;16.23;;;9.32;;
59008;SDS011;44794;42.652;23.318;2023-07-02T01:20:07;15.77;;;9.60;;
59008;SDS011;44794;42.652;23.318;2023-07-02T01:22:35;17.75;;;9.45;;
59008;SDS011;44794;42.652;23.318;2023-07-02T01:25:01;13.60;;;8.75;;
59008;SDS011;44794;42.652;23.318;2023-07-02T01:27:30;13.73;;;9.07;;
59008;SDS011;44794;42.652;23.318;2023-07-02T01:29:55;14.18;;;9.05;;
59008;SDS011;44794;42.652;23.318;2023-07-02T01:32:22;14.95;;;9.65;;
59008;SDS011;44794;42.652;23.318;2023-07-02T01:34:48;15.40;;;9.88;;
59008;SDS011;44794;42.652;23.318;2023-07-02T01:37:14;18.42;;;9.93;;
59008;SDS011;44794;42.652;23.318;2023-07-02T01:39:41;16.23;;;9.73;;
59008;SDS011;44794;42.652;23.318;2023-07-02T01:44:35;15.80;;;9.15;;
59008;SDS011;44794;42.652;23.318;2023-07-02T01:47:00;15.95;;;10.73;;
59008;SDS011;44794;42.652;23.318;2023-07-02T01:49:26;19.75;;;10.38;;
59008;SDS011;44794;42.652;23.318;2023-07-02T01:51:51;16.58;;;10.63;;
59008;SDS011;44794;42.652;23.318;2023-07-02T01:54:18;21.08;;;11.30;;
59008;SDS011;44794;42.652;23.318;2023-07-02T01:56:44;19.55;;;10.95;;
59008;SDS011;44794;42.652;23.318;2023-07-02T01:59:09;21.95;;;12.63;;
59008;SDS011;44794;42.652;23.318;2023-07-02T02:01:35;23.77;;;12.80;;
59008;SDS011;44794;42.652;23.318;2023-07-02T02:04:00;24.40;;;13.77;;
59008;SDS011;44794;42.652;23.318;2023-07-02T02:06:25;21.13;;;13.40;;
59008;SDS011;44794;42.652;23.318;2023-07-02T02:08:52;29.05;;;14.10;;
59008;SDS011;44794;42.652;23.318;2023-07-02T02:11:18;23.85;;;14.63;;
59008;SDS011;44794;42.652;23.318;2023-07-02T02:13:43;26.23;;;14.50;;
59008;SDS011;44794;42.652;23.318;2023-07-02T02:16:09;27.23;;;15.50;;
59008;SDS011;44794;42.652;23.318;2023-07-02T02:18:34;25.52;;;15.20;;
59008;SDS011;44794;42.652;23.318;2023-07-02T02:20:59;27.17;;;16.05;;
59008;SDS011;44794;42.652;23.318;2023-07-02T02:23:25;25.98;;;15.50;;
59008;SDS011;44794;42.652;23.318;2023-07-02T02:25:51;27.42;;;15.07;;
59008;SDS011;44794;42.652;23.318;2023-07-02T02:28:16;27.52;;;15.73;;
59008;SDS011;44794;42.652;23.318;2023-07-02T02:30:41;27.50;;;15.90;;
59008;SDS011;44794;42.652;23.318;2023-07-02T02:33:07;29.05;;;16.25;;
59008;SDS011;44794;42.652;23.318;2023-07-02T02:35:32;29.20;;;16.20;;
59008;SDS011;44794;42.652;23.318;2023-07-02T02:38:00;30.20;;;16.17;;
59008;SDS011;44794;42.652;23.318;2023-07-02T02:40:27;31.45;;;16.50;;
59008;SDS011;44794;42.652;23.318;2023-07-02T02:42:53;29.42;;;16.92;;
59008;SDS011;44794;42.652;23.318;2023-07-02T02:45:19;29.13;;;16.85;;
59008;SDS011;44794;42.652;23.318;2023-07-02T02:47:45;31.60;;;14.93;;
59008;SDS011;44794;42.652;23.318;2023-07-02T02:50:11;27.60;;;16.63;;
59008;SDS011;44794;42.652;23.318;2023-07-02T02:52:38;27.75;;;15.63;;
59008;SDS011;44794;42.652;23.318;2023-07-02T02:55:04;26.98;;;14.60;;
59008;SDS011;44794;42.652;23.318;2023-07-02T02:57:32;25.10;;;14.93;;
59008;SDS011;44794;42.652;23.318;2023-07-02T02:59:58;25.23;;;14.63;;
59008;SDS011;44794;42.652;23.318;2023-07-02T03:02:24;22.35;;;14.43;;
59008;SDS011;44794;42.652;23.318;2023-07-02T03:04:49;24.55;;;13.32;;
59008;SDS011;44794;42.652;23.318;2023-07-02T03:07:15;24.52;;;15.02;;
59008;SDS011;44794;42.652;23.318;2023-07-02T03:09:40;24.70;;;14.23;;
59008;SDS011;44794;42.652;23.318;2023-07-02T03:12:06;23.02;;;14.90;;
59008;SDS011;44794;42.652;23.318;2023-07-02T03:14:32;25.02;;;14.65;;
59008;SDS011;44794;42.652;23.318;2023-07-02T03:16:57;24.42;;;14.20;;
59008;SDS011;44794;42.652;23.318;2023-07-02T03:19:23;22.75;;;14.80;;
59008;SDS011;44794;42.652;23.318;2023-07-02T03:21:49;25.67;;;14.90;;
59008;SDS011;44794;42.652;23.318;2023-07-02T03:24:14;23.30;;;14.35;;
59008;SDS011;44794;42.652;23.318;2023-07-02T03:26:41;21.85;;;13.63;;
59008;SDS011;44794;42.652;23.318;2023-07-02T03:29:10;22.45;;;13.35;;
59008;SDS011;44794;42.652;23.318;2023-07-02T03:31:35;25.10;;;13.40;;
59008;SDS011;44794;42.652;23.318;2023-07-02T03:34:09;23.23;;;13.70;;
59008;SDS011;44794;42.652;23.318;2023-07-02T03:36:36;20.52;;;12.70;;
59008;SDS011;44794;42.652;23.318;2023-07-02T03:39:02;25.25;;;13.35;;
59008;SDS011;44794;42.652;23.318;2023-07-02T03:41:28;20.58;;;12.77;;
59008;SDS011;44794;42.652;23.318;2023-07-02T03:43:54;20.75;;;12.57;;
59008;SDS011;44794;42.652;23.318;2023-07-02T03:46:19;21.30;;;13.10;;
59008;SDS011;44794;42.652;23.318;2023-07-02T03:48:45;20.52;;;13.27;;
59008;SDS011;44794;42.652;23.318;2023-07-02T03:51:10;27.35;;;12.95;;
59008;SDS011;44794;42.652;23.318;2023-07-02T03:53:39;17.23;;;11.38;;
59008;SDS011;44794;42.652;23.318;2023-07-02T03:56:04;19.77;;;12.10;;
59008;SDS011;44794;42.652;23.318;2023-07-02T03:58:30;18.95;;;11.38;;
59008;SDS011;44794;42.652;23.318;2023-07-02T04:00:55;19.88;;;11.65;;
59008;SDS011;44794;42.652;23.318;2023-07-02T04:03:21;20.00;;;11.75;;
59008;SDS011;44794;42.652;23.318;2023-07-02T04:05:46;20.08;;;11.70;;
59008;SDS011;44794;42.652;23.318;2023-07-02T04:08:11;18.45;;;11.25;;
59008;SDS011;44794;42.652;23.318;2023-07-02T04:10:37;17.63;;;10.32;;
59008;SDS011;44794;42.652;23.318;2023-07-02T04:13:02;18.40;;;10.52;;
59008;SDS011;44794;42.652;23.318;2023-07-02T04:15:28;17.92;;;10.50;;
59008;SDS011;44794;42.652;23.318;2023-07-02T04:17:53;16.90;;;11.05;;
59008;SDS011;44794;42.652;23.318;2023-07-02T04:20:19;14.52;;;9.40;;
59008;SDS011;44794;42.652;23.318;2023-07-02T04:22:45;17.48;;;9.63;;
59008;SDS011;44794;42.652;23.318;2023-07-02T04:25:12;14.70;;;9.38;;
59008;SDS011;44794;42.652;23.318;2023-07-02T04:27:41;15.73;;;9.30;;
59008;SDS011;44794;42.652;23.318;2023-07-02T04:30:08;15.75;;;8.40;;
59008;SDS011;44794;42.652;23.318;2023-07-02T04:32:36;17.20;;;9.32;;
59008;SDS011;44794;42.652;23.318;2023-07-02T04:35:01;16.23;;;9.43;;
59008;SDS011;44794;42.652;23.318;2023-07-02T04:37:27;14.90;;;9.23;;
59008;SDS011;44794;42.652;23.318;2023-07-02T04:39:53;16.05;;;9.45;;
59008;SDS011;44794;42.652;23.318;2023-07-02T04:42:19;19.35;;;9.88;;
59008;SDS011;44794;42.652;23.318;2023-07-02T04:44:45;16.83;;;9.32;;
59008;SDS011;44794;42.652;23.318;2023-07-02T04:47:10;16.02;;;9.88;;
59008;SDS011;44794;42.652;23.318;2023-07-02T04:49:36;19.65;;;9.90;;
59008;SDS011;44794;42.652;23.318;2023-07-02T04:52:01;18.33;;;9.75;;
59008;SDS011;44794;42.652;23.318;2023-07-02T04:54:27;18.67;;;9.88;;
59008;SDS011;44794;42.652;23.318;2023-07-02T04:56:54;16.73;;;10.07;;
59008;SDS011;44794;42.652;23.318;2023-07-02T04:59:20;18.45;;;10.05;;
59008;SDS011;44794;42.652;23.318;2023-07-02T05:01:46;16.92;;;9.80;;
59008;SDS011;44794;42.652;23.318;2023-07-02T05:04:12;20.20;;;10.05;;
59008;SDS011;44794;42.652;23.318;2023-07-02T05:06:39;16.98;;;10.35;;
59008;SDS011;44794;42.652;23.318;2023-07-02T05:09:04;20.50;;;10.45;;
59008;SDS011;44794;42.652;23.318;2023-07-02T05:11:30;16.05;;;10.35;;
59008;SDS011;44794;42.652;23.318;2023-07-02T05:13:55;19.75;;;10.32;;
59008;SDS011;44794;42.652;23.318;2023-07-02T05:16:21;19.42;;;11.10;;
59008;SDS011;44794;42.652;23.318;2023-07-02T05:18:46;17.55;;;10.52;;
59008;SDS011;44794;42.652;23.318;2023-07-02T05:21:12;20.77;;;12.27;;
59008;SDS011;44794;42.652;23.318;2023-07-02T05:23:37;22.38;;;13.52;;
59008;SDS011;44794;42.652;23.318;2023-07-02T05:26:03;24.35;;;13.95;;
59008;SDS011;44794;42.652;23.318;2023-07-02T05:28:28;22.20;;;15.00;;
59008;SDS011;44794;42.652;23.318;2023-07-02T05:30:54;23.27;;;14.98;;
59008;SDS011;44794;42.652;23.318;2023-07-02T05:33:19;22.67;;;14.95;;
59008;SDS011;44794;42.652;23.318;2023-07-02T05:35:47;27.20;;;15.50;;
59008;SDS011;44794;42.652;23.318;2023-07-02T05:38:12;22.63;;;14.00;;
59008;SDS011;44794;42.652;23.318;2023-07-02T05:40:39;22.27;;;12.90;;
59008;SDS011;44794;42.652;23.318;2023-07-02T05:43:04;21.65;;;12.43;;
59008;SDS011;44794;42.652;23.318;2023-07-02T05:45:30;23.08;;;11.82;;
59008;SDS011;44794;42.652;23.318;2023-07-02T05:47:56;18.92;;;12.10;;
59008;SDS011;44794;42.652;23.318;2023-07-02T05:50:22;18.80;;;11.05;;
59008;SDS011;44794;42.652;23.318;2023-07-02T05:52:48;23.25;;;11.23;;
59008;SDS011;44794;42.652;23.318;2023-07-02T05:55:13;22.85;;;12.32;;
59008;SDS011;44794;42.652;23.318;2023-07-02T05:57:39;20.00;;;11.48;;
59008;SDS011;44794;42.652;23.318;2023-07-02T06:00:05;21.08;;;11.98;;
59008;SDS011;44794;42.652;23.318;2023-07-02T06:02:31;20.40;;;11.98;;
59008;SDS011;44794;42.652;23.318;2023-07-02T06:04:57;24.08;;;12.48;;
59008;SDS011;44794;42.652;23.318;2023-07-02T06:07:22;22.17;;;11.98;;
59008;SDS011;44794;42.652;23.318;2023-07-02T06:09:49;20.45;;;12.20;;
59008;SDS011;44794;42.652;23.318;2023-07-02T06:12:15;22.05;;;11.93;;
59008;SDS011;44794;42.652;23.318;2023-07-02T06:14:40;19.35;;;12.07;;
59008;SDS011;44794;42.652;23.318;2023-07-02T06:17:06;22.30;;;12.25;;
59008;SDS011;44794;42.652;23.318;2023-07-02T06:19:33;20.88;;;11.48;;
59008;SDS011;44794;42.652;23.318;2023-07-02T06:21:59;18.58;;;11.68;;
59008;SDS011;44794;42.652;23.318;2023-07-02T06:24:24;17.95;;;10.45;;
59008;SDS011;44794;42.652;23.318;2023-07-02T06:26:50;18.92;;;10.90;;
59008;SDS011;44794;42.652;23.318;2023-07-02T06:29:15;20.02;;;11.32;;
59008;SDS011;44794;42.652;23.318;2023-07-02T06:31:41;21.10;;;11.27;;
59008;SDS011;44794;42.652;23.318;2023-07-02T06:34:06;19.05;;;11.10;;
59008;SDS011;44794;42.652;23.318;2023-07-02T06:36:34;17.80;;;11.48;;
59008;SDS011;44794;42.652;23.318;2023-07-02T06:38:59;20.90;;;12.05;;
59008;SDS011;44794;42.652;23.318;2023-07-02T06:41:25;18.95;;;11.15;;
59008;SDS011;44794;42.652;23.318;2023-07-02T06:43:52;21.70;;;11.30;;
59008;SDS011;44794;42.652;23.318;2023-07-02T06:46:19;18.20;;;10.88;;
59008;SDS011;44794;42.652;23.318;2023-07-02T06:48:44;20.13;;;11.68;;
59008;SDS011;44794;42.652;23.318;2023-07-02T06:51:10;21.40;;;11.40;;
59008;SDS011;44794;42.652;23.318;2023-07-02T06:53:37;19.05;;;10.85;;
59008;SDS011;44794;42.652;23.318;2023-07-02T06:56:03;20.95;;;11.15;;
59008;SDS011;44794;42.652;23.318;2023-07-02T06:58:28;17.33;;;10.65;;
59008;SDS011;44794;42.652;23.318;2023-07-02T07:00:54;17.67;;;10.45;;
59008;SDS011;44794;42.652;23.318;2023-07-02T07:03:19;19.35;;;11.05;;
59008;SDS011;44794;42.652;23.318;2023-07-02T07:05:44;22.98;;;11.95;;
59008;SDS011;44794;42.652;23.318;2023-07-02T07:08:10;20.75;;;11.10;;
59008;SDS011;44794;42.652;23.318;2023-07-02T07:10:35;19.67;;;11.32;;
59008;SDS011;44794;42.652;23.318;2023-07-02T07:13:01;18.17;;;10.68;;
59008;SDS011;44794;42.652;23.318;2023-07-02T07:15:29;16.98;;;10.35;;
59008;SDS011;44794;42.652;23.318;2023-07-02T07:17:57;16.92;;;10.00;;
59008;SDS011;44794;42.652;23.318;2023-07-02T07:20:22;17.90;;;9.95;;
59008;SDS011;44794;42.652;23.318;2023-07-02T07:22:48;16.08;;;9.98;;
59008;SDS011;44794;42.652;23.318;2023-07-02T07:25:14;15.88;;;9.25;;
59008;SDS011;44794;42.652;23.318;2023-07-02T07:27:39;17.67;;;9.60;;
59008;SDS011;44794;42.652;23.318;2023-07-02T07:30:05;14.70;;;9.60;;
59008;SDS011;44794;42.652;23.318;2023-07-02T07:32:31;14.75;;;9.35;;
59008;SDS011;44794;42.652;23.318;2023-07-02T07:34:56;14.60;;;9.70;;
59008;SDS011;44794;42.652;23.318;2023-07-02T07:37:22;14.98;;;8.93;;
59008;SDS011;44794;42.652;23.318;2023-07-02T07:39:51;19.45;;;9.75;;
59008;SDS011;44794;42.652;23.318;2023-07-02T07:58:06;13.20;;;8.60;;
59008;SDS011;44794;42.652;23.318;2023-07-02T08:11:03;11.68;;;7.55;;
59008;SDS011;44794;42.652;23.318;2023-07-02T08:16:09;11.05;;;7.57;;
59008;SDS011;44794;42.652;23.318;2023-07-02T08:18:36;13.88;;;7.50;;
59008;SDS011;44794;42.652;23.318;2023-07-02T08:21:02;10.68;;;6.93;;
59008;SDS011;44794;42.652;23.318;2023-07-02T08:23:35;11.02;;;7.40;;
59008;SDS011;44794;42.652;23.318;2023-07-02T08:35:37;11.10;;;7.18;;
59008;SDS011;44794;42.652;23.318;2023-07-02T08:43:14;11.25;;;7.55;;
59008;SDS011;44794;42.652;23.318;2023-07-02T08:45:47;11.02;;;7.15;;
59008;SDS011;44794;42.652;23.318;2023-07-02T08:48:14;10.50;;;7.38;;
59008;SDS011;44794;42.652;23.318;2023-07-02T08:50:47;8.63;;;7.00;;
59008;SDS011;44794;42.652;23.318;2023-07-02T08:58:52;13.00;;;8.13;;
59008;SDS011;44794;42.652;23.318;2023-07-02T09:01:43;12.27;;;8.40;;
59008;SDS011;44794;42.652;23.318;2023-07-02T09:04:23;11.75;;;8.27;;
59008;SDS011;44794;42.652;23.318;2023-07-02T09:15:41;12.02;;;7.75;;
59008;SDS011;44794;42.652;23.318;2023-07-02T09:20:46;9.68;;;7.32;;
59008;SDS011;44794;42.652;23.318;2023-07-02T09:23:17;11.30;;;7.70;;
59008;SDS011;44794;42.652;23.318;2023-07-02T09:25:53;11.98;;;7.45;;
59008;SDS011;44794;42.652;23.318;2023-07-02T09:28:21;12.85;;;7.00;;
59008;SDS011;44794;42.652;23.318;2023-07-02T09:31:11;10.73;;;7.88;;
59008;SDS011;44794;42.652;23.318;2023-07-02T09:34:01;11.68;;;6.70;;
59008;SDS011;44794;42.652;23.318;2023-07-02T09:39:03;10.30;;;7.57;;
59008;SDS011;44794;42.652;23.318;2023-07-02T09:44:04;11.07;;;7.40;;
59008;SDS011;44794;42.652;23.318;2023-07-02T09:49:06;10.18;;;7.00;;
59008;SDS011;44794;42.652;23.318;2023-07-02T09:54:03;10.23;;;7.07;;
59008;SDS011;44794;42.652;23.318;2023-07-02T09:56:35;12.60;;;6.95;;
59008;SDS011;44794;42.652;23.318;2023-07-02T09:59:01;12.20;;;7.55;;
59008;SDS011;44794;42.652;23.318;2023-07-02T10:01:27;9.80;;;7.30;;
59008;SDS011;44794;42.652;23.318;2023-07-02T10:03:55;9.60;;;6.72;;
59008;SDS011;44794;42.652;23.318;2023-07-02T10:06:20;10.80;;;7.70;;
59008;SDS011;44794;42.652;23.318;2023-07-02T10:11:21;11.13;;;7.57;;
59008;SDS011;44794;42.652;23.318;2023-07-02T10:16:51;10.73;;;7.13;;
59008;SDS011;44794;42.652;23.318;2023-07-02T10:19:49;9.57;;;6.72;;
59008;SDS011;44794;42.652;23.318;2023-07-02T10:27:32;12.02;;;7.35;;
59008;SDS011;44794;42.652;23.318;2023-07-02T10:30:02;12.90;;;7.00;;
59008;SDS011;44794;42.652;23.318;2023-07-02T10:32:29;9.35;;;7.20;;
59008;SDS011;44794;42.652;23.318;2023-07-02T10:34:55;13.88;;;7.82;;
59008;SDS011;44794;42.652;23.318;2023-07-02T10:37:21;11.48;;;7.25;;
59008;SDS011;44794;42.652;23.318;2023-07-02T10:39:46;9.52;;;6.57;;
59008;SDS011;44794;42.652;23.318;2023-07-02T10:42:12;10.30;;;6.82;;
59008;SDS011;44794;42.652;23.318;2023-07-02T10:44:48;10.68;;;7.03;;
59008;SDS011;44794;42.652;23.318;2023-07-02T10:47:15;9.88;;;6.32;;
59008;SDS011;44794;42.652;23.318;2023-07-02T10:49:40;13.65;;;6.60;;
59008;SDS011;44794;42.652;23.318;2023-07-02T10:52:06;10.75;;;6.60;;
59008;SDS011;44794;42.652;23.318;2023-07-02T10:54:45;10.85;;;6.95;;
59008;SDS011;44794;42.652;23.318;2023-07-02T10:57:16;10.07;;;6.60;;
59008;SDS011;44794;42.652;23.318;2023-07-02T10:59:46;8.60;;;6.45;;
59008;SDS011;44794;42.652;23.318;2023-07-02T11:02:13;10.75;;;6.55;;
59008;SDS011;44794;42.652;23.318;2023-07-02T11:04:39;10.48;;;6.80;;
59008;SDS011;44794;42.652;23.318;2023-07-02T11:07:04;9.38;;;6.15;;
59008;SDS011;44794;42.652;23.318;2023-07-02T11:09:30;8.65;;;6.10;;
59008;SDS011;44794;42.652;23.318;2023-07-02T11:11:56;7.05;;;6.13;;
59008;SDS011;44794;42.652;23.318;2023-07-02T11:16:55;9.75;;;6.53;;
59008;SDS011;44794;42.652;23.318;2023-07-02T11:19:21;11.70;;;6.50;;
59008;SDS011;44794;42.652;23.318;2023-07-02T11:21:54;9.63;;;7.03;;
59008;SDS011;44794;42.652;23.318;2023-07-02T11:24:27;9.57;;;6.35;;
59008;SDS011;44794;42.652;23.318;2023-07-02T11:26:55;12.25;;;6.68;;
59008;SDS011;44794;42.652;23.318;2023-07-02T11:29:21;9.40;;;6.68;;
59008;SDS011;44794;42.652;23.318;2023-07-02T11:31:46;8.30;;;6.20;;
59008;SDS011;44794;42.652;23.318;2023-07-02T11:34:16;9.88;;;6.47;;
59008;SDS011;44794;42.652;23.318;2023-07-02T11:39:08;9.05;;;5.93;;
59008;SDS011;44794;42.652;23.318;2023-07-02T11:41:38;10.50;;;6.53;;
59008;SDS011;44794;42.652;23.318;2023-07-02T11:44:04;9.55;;;5.65;;
59008;SDS011;44794;42.652;23.318;2023-07-02T11:46:30;9.05;;;5.53;;
59008;SDS011;44794;42.652;23.318;2023-07-02T11:48:56;8.65;;;5.85;;
59008;SDS011;44794;42.652;23.318;2023-07-02T11:51:21;8.60;;;5.80;;
59008;SDS011;44794;42.652;23.318;2023-07-02T11:53:47;8.18;;;5.40;;
59008;SDS011;44794;42.652;23.318;2023-07-02T11:56:13;8.48;;;5.43;;
59008;SDS011;44794;42.652;23.318;2023-07-02T11:58:39;12.00;;;5.60;;
59008;SDS011;44794;42.652;23.318;2023-07-02T12:01:04;8.80;;;5.03;;
59008;SDS011;44794;42.652;23.318;2023-07-02T12:03:30;6.25;;;4.60;;
59008;SDS011;44794;42.652;23.318;2023-07-02T12:05:56;7.28;;;4.55;;
59008;SDS011;44794;42.652;23.318;2023-07-02T12:08:21;8.85;;;4.13;;
59008;SDS011;44794;42.652;23.318;2023-07-02T12:10:47;7.13;;;4.40;;
59008;SDS011;44794;42.652;23.318;2023-07-02T12:13:13;5.55;;;4.05;;
59008;SDS011;44794;42.652;23.318;2023-07-02T12:15:38;6.75;;;4.00;;
59008;SDS011;44794;42.652;23.318;2023-07-02T12:18:04;6.38;;;4.50;;
59008;SDS011;44794;42.652;23.318;2023-07-02T12:20:29;8.65;;;5.20;;
59008;SDS011;44794;42.652;23.318;2023-07-02T12:22:55;14.07;;;5.57;;
59008;SDS011;44794;42.652;23.318;2023-07-02T12:25:21;11.70;;;6.10;;
59008;SDS011;44794;42.652;23.318;2023-07-02T12:27:46;8.77;;;5.93;;
59008;SDS011;44794;42.652;23.318;2023-07-02T12:30:12;13.65;;;6.53;;
59008;SDS011;44794;42.652;23.318;2023-07-02T12:32:42;8.95;;;6.72;;
59008;SDS011;44794;42.652;23.318;2023-07-02T12:35:08;10.88;;;6.80;;
59008;SDS011;44794;42.652;23.318;2023-07-02T12:37:33;10.18;;;6.88;;
59008;SDS011;44794;42.652;23.318;2023-07-02T12:39:58;9.15;;;6.60;;
59008;SDS011;44794;42.652;23.318;2023-07-02T12:42:24;12.60;;;7.45;;
59008;SDS011;44794;42.652;23.318;2023-07-02T12:44:49;10.35;;;6.43;;
59008;SDS011;44794;42.652;23.318;2023-07-02T12:47:15;9.65;;;6.22;;
59008;SDS011;44794;42.652;23.318;2023-07-02T12:49:40;8.75;;;6.50;;
59008;SDS011;44794;42.652;23.318;2023-07-02T12:52:07;9.60;;;5.97;;
59008;SDS011;44794;42.652;23.318;2023-07-02T12:54:32;8.57;;;6.30;;
59008;SDS011;44794;42.652;23.318;2023-07-02T12:56:58;8.90;;;6.43;;
59008;SDS011;44794;42.652;23.318;2023-07-02T12:59:23;9.98;;;6.82;;
59008;SDS011;44794;42.652;23.318;2023-07-02T13:01:48;10.95;;;6.95;;
59008;SDS011;44794;42.652;23.318;2023-07-02T13:04:14;9.50;;;6.72;;
59008;SDS011;44794;42.652;23.318;2023-07-02T13:06:40;12.50;;;7.30;;
59008;SDS011;44794;42.652;23.318;2023-07-02T13:09:06;9.63;;;6.90;;
59008;SDS011;44794;42.652;23.318;2023-07-02T13:11:32;12.20;;;7.20;;
59008;SDS011;44794;42.652;23.318;2023-07-02T13:13:58;8.63;;;6.53;;
59008;SDS011;44794;42.652;23.318;2023-07-02T13:16:23;9.35;;;6.60;;
59008;SDS011;44794;42.652;23.318;2023-07-02T13:18:49;9.50;;;6.28;;
59008;SDS011;44794;42.652;23.318;2023-07-02T13:21:14;10.55;;;6.97;;
59008;SDS011;44794;42.652;23.318;2023-07-02T13:23:40;10.75;;;6.95;;
59008;SDS011;44794;42.652;23.318;2023-07-02T13:26:05;8.77;;;6.60;;
59008;SDS011;44794;42.652;23.318;2023-07-02T13:28:31;11.43;;;6.63;;
59008;SDS011;44794;42.652;23.318;2023-07-02T13:30:56;10.95;;;6.88;;
59008;SDS011;44794;42.652;23.318;2023-07-02T13:33:22;9.20;;;6.80;;
59008;SDS011;44794;42.652;23.318;2023-07-02T13:35:47;10.45;;;6.80;;
59008;SDS011;44794;42.652;23.318;2023-07-02T13:38:13;10.07;;;7.72;;
59008;SDS011;44794;42.652;23.318;2023-07-02T13:40:38;11.55;;;7.20;;
59008;SDS011;44794;42.652;23.318;2023-07-02T13:43:04;11.50;;;6.97;;
59008;SDS011;44794;42.652;23.318;2023-07-02T13:45:30;12.32;;;7.13;;
59008;SDS011;44794;42.652;23.318;2023-07-02T13:47:56;10.82;;;7.10;;
59008;SDS011;44794;42.652;23.318;2023-07-02T13:50:21;10.63;;;6.65;;
59008;SDS011;44794;42.652;23.318;2023-07-02T13:52:46;11.82;;;6.80;;
59008;SDS011;44794;42.652;23.318;2023-07-02T13:55:13;9.55;;;6.35;;
59008;SDS011;44794;42.652;23.318;2023-07-02T13:57:38;9.52;;;6.60;;
59008;SDS011;44794;42.652;23.318;2023-07-02T14:00:04;9.50;;;7.10;;
59008;SDS011;44794;42.652;23.318;2023-07-02T14:02:31;9.52;;;7.53;;
59008;SDS011;44794;42.652;23.318;2023-07-02T14:04:57;13.02;;;7.07;;
59008;SDS011;44794;42.652;23.318;2023-07-02T14:07:23;10.18;;;7.18;;
59008;SDS011;44794;42.652;23.318;2023-07-02T14:09:49;10.68;;;7.25;;
59008;SDS011;44794;42.652;23.318;2023-07-02T14:12:14;12.48;;;7.80;;
59008;SDS011;44794;42.652;23.318;2023-07-02T14:14:40;12.10;;;7.07;;
59008;SDS011;44794;42.652;23.318;2023-07-02T14:17:06;10.63;;;6.93;;
59008;SDS011;44794;42.652;23.318;2023-07-02T14:19:32;10.13;;;6.95;;
59008;SDS011;44794;42.652;23.318;2023-07-02T14:21:58;11.07;;;7.35;;
59008;SDS011;44794;42.652;23.318;2023-07-02T14:24:23;10.82;;;7.43;;
59008;SDS011;44794;42.652;23.318;2023-07-02T14:26:48;12.82;;;7.03;;
59008;SDS011;44794;42.652;23.318;2023-07-02T14:29:14;11.07;;;7.50;;
59008;SDS011;44794;42.652;23.318;2023-07-02T14:31:40;10.95;;;7.85;;
59008;SDS011;44794;42.652;23.318;2023-07-02T14:34:06;13.45;;;8.27;;
59008;SDS011;44794;42.652;23.318;2023-07-02T14:36:32;12.68;;;9.02;;
59008;SDS011;44794;42.652;23.318;2023-07-02T14:38:57;13.38;;;8.85;;
59008;SDS011;44794;42.652;23.318;2023-07-02T14:41:22;13.20;;;8.45;;
59008;SDS011;44794;42.652;23.318;2023-07-02T14:43:48;13.43;;;9.38;;
59008;SDS011;44794;42.652;23.318;2023-07-02T14:46:13;11.32;;;8.90;;
59008;SDS011;44794;42.652;23.318;2023-07-02T14:48:39;13.30;;;8.93;;
59008;SDS011;44794;42.652;23.318;2023-07-02T14:51:06;13.35;;;9.25;;
59008;SDS011;44794;42.652;23.318;2023-07-02T14:53:32;12.85;;;8.90;;
59008;SDS011;44794;42.652;23.318;2023-07-02T14:55:59;13.68;;;8.27;;
59008;SDS011;44794;42.652;23.318;2023-07-02T14:58:26;14.10;;;9.20;;
59008;SDS011;44794;42.652;23.318;2023-07-02T15:00:53;19.25;;;11.32;;
59008;SDS011;44794;42.652;23.318;2023-07-02T15:03:21;17.25;;;10.55;;
59008;SDS011;44794;42.652;23.318;2023-07-02T15:05:48;15.07;;;10.07;;
59008;SDS011;44794;42.652;23.318;2023-07-02T15:08:14;15.98;;;9.77;;
59008;SDS011;44794;42.652;23.318;2023-07-02T15:10:41;14.90;;;9.88;;
59008;SDS011;44794;42.652;23.318;2023-07-02T15:13:11;14.57;;;9.05;;
59008;SDS011;44794;42.652;23.318;2023-07-02T15:15:37;16.45;;;10.10;;
59008;SDS011;44794;42.652;23.318;2023-07-02T15:18:04;14.25;;;9.38;;
59008;SDS011;44794;42.652;23.318;2023-07-02T15:20:33;15.00;;;8.82;;
59008;SDS011;44794;42.652;23.318;2023-07-02T15:22:59;13.57;;;8.52;;
59008;SDS011;44794;42.652;23.318;2023-07-02T15:25:25;12.68;;;8.30;;
59008;SDS011;44794;42.652;23.318;2023-07-02T15:27:51;12.80;;;7.68;;
59008;SDS011;44794;42.652;23.318;2023-07-02T15:30:16;11.63;;;8.02;;
59008;SDS011;44794;42.652;23.318;2023-07-02T15:32:42;11.63;;;7.90;;
59008;SDS011;44794;42.652;23.318;2023-07-02T15:35:07;12.57;;;8.35;;
59008;SDS011;44794;42.652;23.318;2023-07-02T15:37:33;11.63;;;8.30;;
59008;SDS011;44794;42.652;23.318;2023-07-02T15:39:58;12.30;;;8.73;;
59008;SDS011;44794;42.652;23.318;2023-07-02T15:42:24;12.35;;;8.35;;
59008;SDS011;44794;42.652;23.318;2023-07-02T15:44:54;12.25;;;7.85;;
59008;SDS011;44794;42.652;23.318;2023-07-02T15:47:21;12.98;;;8.20;;